sensor_id;sensor_type;location;lat;lon;timestamp;pressure;altitude;pressure_sealevel;temperature;humidity
75650;BME280;64245;51.282;22.494;2024-03-08T08:14:11;99737.16;;;0.78;100.00
75650;BME280;64245;51.282;22.494;2024-03-08T08:16:37;99738.19;;;0.75;100.00
75650;BME280;64245;51.282;22.494;2024-03-08T08:19:03;99738.66;;;0.83;100.00
75650;BME280;64245;51.282;22.494;2024-03-08T08:21:36;99728.53;;;1.10;100.00
75650;BME280;64245;51.282;22.494;2024-03-08T08:24:03;99732.66;;;1.16;100.00
75650;BME280;64245;51.282;22.494;2024-03-08T08:26:30;99745.56;;;1.23;100.00
75650;BME280;64245;51.282;22.494;2024-03-08T08:28:55;99740.91;;;1.28;100.00
75650;BME280;64245;51.282;22.494;2024-03-08T08:31:21;99735.97;;;1.38;100.00
75650;BME280;64245;51.282;22.494;2024-03-08T08:33:47;99739.84;;;1.50;100.00
75650;BME280;64245;51.282;22.494;2024-03-08T08:36:18;99728.06;;;1.72;100.00
75650;BME280;64245;51.282;22.494;2024-03-08T08:38:43;99733.28;;;1.91;100.00
75650;BME280;64245;51.282;22.494;2024-03-08T08:41:10;99738.81;;;2.04;100.00
75650;BME280;64245;51.282;22.494;2024-03-08T08:43:36;99739.16;;;2.14;100.00
75650;BME280;64245;51.282;22.494;2024-03-08T08:46:02;99737.34;;;2.31;100.00
75650;BME280;64245;51.282;22.494;2024-03-08T08:48:28;99733.53;;;2.20;100.00
75650;BME280;64245;51.282;22.494;2024-03-08T08:50:56;99740.88;;;2.15;100.00
75650;BME280;64245;51.282;22.494;2024-03-08T08:53:21;99736.50;;;2.31;100.00
75650;BME280;64245;51.282;22.494;2024-03-08T08:55:47;99723.41;;;2.43;100.00
75650;BME280;64245;51.282;22.494;2024-03-08T08:58:13;99727.44;;;2.51;100.00
75650;BME280;64245;51.282;22.494;2024-03-08T09:00:39;99734.69;;;2.64;100.00
75650;BME280;64245;51.282;22.494;2024-03-08T09:03:05;99724.13;;;2.63;100.00
75650;BME280;64245;51.282;22.494;2024-03-08T09:05:33;99722.75;;;2.71;100.00
75650;BME280;64245;51.282;22.494;2024-03-08T09:07:59;99724.97;;;2.95;100.00
75650;BME280;64245;51.282;22.494;2024-03-08T09:10:25;99727.53;;;3.12;100.00
75650;BME280;64245;51.282;22.494;2024-03-08T09:12:51;99727.38;;;3.15;100.00
75650;BME280;64245;51.282;22.494;2024-03-08T09:15:17;99729.78;;;3.20;99.78
75650;BME280;64245;51.282;22.494;2024-03-08T09:17:43;99731.03;;;3.44;97.20
75650;BME280;64245;51.282;22.494;2024-03-08T09:20:10;99727.81;;;3.23;100.00
75650;BME280;64245;51.282;22.494;2024-03-08T09:22:40;99711.13;;;3.35;97.11
75650;BME280;64245;51.282;22.494;2024-03-08T09:25:06;99730.75;;;3.64;94.69
75650;BME280;64245;51.282;22.494;2024-03-08T09:27:32;99725.78;;;3.72;92.23
75650;BME280;64245;51.282;22.494;2024-03-08T09:29:59;99722.09;;;3.75;88.16
75650;BME280;64245;51.282;22.494;2024-03-08T09:32:26;99728.19;;;3.77;83.58
75650;BME280;64245;51.282;22.494;2024-03-08T09:34:52;99717.59;;;4.05;86.04
75650;BME280;64245;51.282;22.494;2024-03-08T09:37:18;99723.56;;;3.95;89.26
75650;BME280;64245;51.282;22.494;2024-03-08T09:39:45;99719.75;;;3.85;81.53
75650;BME280;64245;51.282;22.494;2024-03-08T09:42:15;99698.03;;;3.76;82.79
75650;BME280;64245;51.282;22.494;2024-03-08T09:44:45;99702.81;;;3.56;85.33
75650;BME280;64245;51.282;22.494;2024-03-08T09:47:13;99705.06;;;3.63;88.96
75650;BME280;64245;51.282;22.494;2024-03-08T09:49:40;99702.31;;;3.79;90.02
75650;BME280;64245;51.282;22.494;2024-03-08T09:52:07;99696.53;;;3.87;87.91
75650;BME280;64245;51.282;22.494;2024-03-08T09:54:33;99690.75;;;4.08;86.35
75650;BME280;64245;51.282;22.494;2024-03-08T09:56:59;99690.56;;;4.11;87.02
75650;BME280;64245;51.282;22.494;2024-03-08T09:59:25;99692.19;;;4.00;88.11
75650;BME280;64245;51.282;22.494;2024-03-08T10:01:54;99691.22;;;4.01;84.94
75650;BME280;64245;51.282;22.494;2024-03-08T10:04:24;99682.97;;;4.20;84.30
75650;BME280;64245;51.282;22.494;2024-03-08T10:06:51;99697.16;;;4.34;85.96
75650;BME280;64245;51.282;22.494;2024-03-08T10:09:20;99690.84;;;4.49;84.22
75650;BME280;64245;51.282;22.494;2024-03-08T10:11:46;99683.59;;;4.51;81.51
75650;BME280;64245;51.282;22.494;2024-03-08T10:14:12;99685.50;;;4.64;83.71
75650;BME280;64245;51.282;22.494;2024-03-08T10:16:38;99688.28;;;4.48;77.72
75650;BME280;64245;51.282;22.494;2024-03-08T10:19:05;99680.56;;;4.43;77.83
75650;BME280;64245;51.282;22.494;2024-03-08T10:21:32;99677.88;;;4.43;83.20
75650;BME280;64245;51.282;22.494;2024-03-08T10:23:58;99689.25;;;4.33;78.50
75650;BME280;64245;51.282;22.494;2024-03-08T10:26:24;99677.81;;;4.31;79.32
75650;BME280;64245;51.282;22.494;2024-03-08T10:28:52;99672.38;;;4.46;85.87
75650;BME280;64245;51.282;22.494;2024-03-08T10:31:20;99682.09;;;4.62;80.33
75650;BME280;64245;51.282;22.494;2024-03-08T10:33:47;99679.53;;;4.60;79.63
75650;BME280;64245;51.282;22.494;2024-03-08T10:36:13;99686.25;;;4.80;81.60
75650;BME280;64245;51.282;22.494;2024-03-08T10:38:41;99669.00;;;5.12;80.99
75650;BME280;64245;51.282;22.494;2024-03-08T10:41:08;99665.66;;;5.36;81.73
75650;BME280;64245;51.282;22.494;2024-03-08T10:44:26;99671.31;;;5.44;78.07
75650;BME280;64245;51.282;22.494;2024-03-08T10:47:26;99680.66;;;5.64;76.59
75650;BME280;64245;51.282;22.494;2024-03-08T10:50:05;99668.94;;;5.79;73.89
75650;BME280;64245;51.282;22.494;2024-03-08T10:52:34;99667.56;;;5.86;72.63
75650;BME280;64245;51.282;22.494;2024-03-08T10:55:02;99658.72;;;5.59;71.66
75650;BME280;64245;51.282;22.494;2024-03-08T10:57:28;99662.72;;;5.78;74.73
75650;BME280;64245;51.282;22.494;2024-03-08T10:59:54;99668.88;;;6.06;74.48
75650;BME280;64245;51.282;22.494;2024-03-08T11:02:20;99655.91;;;6.38;74.51
75650;BME280;64245;51.282;22.494;2024-03-08T11:04:47;99654.88;;;5.89;69.80
75650;BME280;64245;51.282;22.494;2024-03-08T11:07:15;99651.13;;;6.30;71.16
75650;BME280;64245;51.282;22.494;2024-03-08T11:09:48;99657.44;;;6.29;69.26
75650;BME280;64245;51.282;22.494;2024-03-08T11:12:27;99636.81;;;5.93;71.12
75650;BME280;64245;51.282;22.494;2024-03-08T11:15:02;99645.44;;;6.35;75.19
75650;BME280;64245;51.282;22.494;2024-03-08T11:20:15;99652.41;;;7.80;64.55
75650;BME280;64245;51.282;22.494;2024-03-08T11:22:48;99652.13;;;7.61;63.94
75650;BME280;64245;51.282;22.494;2024-03-08T11:25:37;99648.81;;;7.57;65.38
75650;BME280;64245;51.282;22.494;2024-03-08T11:28:12;99642.09;;;7.87;62.50
75650;BME280;64245;51.282;22.494;2024-03-08T11:30:46;99637.47;;;8.11;63.51
75650;BME280;64245;51.282;22.494;2024-03-08T11:33:16;99633.63;;;9.88;62.31
75650;BME280;64245;51.282;22.494;2024-03-08T11:35:43;99631.91;;;9.87;57.00
75650;BME280;64245;51.282;22.494;2024-03-08T11:38:11;99623.50;;;10.01;56.71
75650;BME280;64245;51.282;22.494;2024-03-08T11:40:39;99624.38;;;10.22;57.27
75650;BME280;64245;51.282;22.494;2024-03-08T11:43:05;99623.94;;;9.44;56.26
75650;BME280;64245;51.282;22.494;2024-03-08T11:45:35;99626.34;;;10.20;57.15
75650;BME280;64245;51.282;22.494;2024-03-08T11:48:06;99623.19;;;10.46;55.22
75650;BME280;64245;51.282;22.494;2024-03-08T11:50:32;99622.69;;;11.21;52.30
75650;BME280;64245;51.282;22.494;2024-03-08T11:53:02;99615.09;;;10.15;55.20
75650;BME280;64245;51.282;22.494;2024-03-08T11:55:30;99615.69;;;10.99;53.12
75650;BME280;64245;51.282;22.494;2024-03-08T11:58:04;99611.31;;;11.17;52.55
75650;BME280;64245;51.282;22.494;2024-03-08T12:00:30;99604.09;;;11.56;51.71
75650;BME280;64245;51.282;22.494;2024-03-08T12:03:09;99611.91;;;11.50;53.14
75650;BME280;64245;51.282;22.494;2024-03-08T12:05:36;99605.72;;;10.30;54.36
75650;BME280;64245;51.282;22.494;2024-03-08T12:08:06;99608.91;;;10.95;52.04
75650;BME280;64245;51.282;22.494;2024-03-08T12:10:38;99598.13;;;11.72;49.94
75650;BME280;64245;51.282;22.494;2024-03-08T12:13:04;99604.38;;;11.24;49.97
75650;BME280;64245;51.282;22.494;2024-03-08T12:15:31;99599.84;;;11.92;48.45
75650;BME280;64245;51.282;22.494;2024-03-08T12:17:59;99595.28;;;12.67;48.34
75650;BME280;64245;51.282;22.494;2024-03-08T12:20:27;99595.25;;;12.94;45.21
75650;BME280;64245;51.282;22.494;2024-03-08T12:22:57;99591.06;;;12.55;46.96
75650;BME280;64245;51.282;22.494;2024-03-08T12:25:32;99592.72;;;11.62;48.29
75650;BME280;64245;51.282;22.494;2024-03-08T12:28:11;99584.16;;;12.42;47.30
75650;BME280;64245;51.282;22.494;2024-03-08T12:30:56;99576.88;;;12.70;41.97
75650;BME280;64245;51.282;22.494;2024-03-08T12:33:24;99581.25;;;13.26;41.97
75650;BME280;64245;51.282;22.494;2024-03-08T12:35:55;99570.59;;;12.97;41.96
75650;BME280;64245;51.282;22.494;2024-03-08T12:38:21;99576.00;;;13.25;41.00
75650;BME280;64245;51.282;22.494;2024-03-08T12:40:55;99544.38;;;11.98;43.30
75650;BME280;64245;51.282;22.494;2024-03-08T12:43:20;99574.56;;;12.21;41.09
75650;BME280;64245;51.282;22.494;2024-03-08T12:45:46;99564.56;;;11.94;42.20
75650;BME280;64245;51.282;22.494;2024-03-08T12:48:13;99549.84;;;11.69;44.86
75650;BME280;64245;51.282;22.494;2024-03-08T12:50:43;99567.56;;;12.65;46.16
75650;BME280;64245;51.282;22.494;2024-03-08T12:53:13;99569.31;;;12.19;47.11
75650;BME280;64245;51.282;22.494;2024-03-08T12:55:39;99558.59;;;12.37;47.15
75650;BME280;64245;51.282;22.494;2024-03-08T12:58:06;99570.94;;;13.47;40.48
75650;BME280;64245;51.282;22.494;2024-03-08T13:00:34;99563.84;;;13.46;40.67
75650;BME280;64245;51.282;22.494;2024-03-08T13:03:02;99566.94;;;14.55;38.01
75650;BME280;64245;51.282;22.494;2024-03-08T13:05:28;99571.16;;;15.00;37.24
75650;BME280;64245;51.282;22.494;2024-03-08T13:07:55;99563.88;;;13.72;39.03
75650;BME280;64245;51.282;22.494;2024-03-08T13:10:21;99562.69;;;15.11;37.06
75650;BME280;64245;51.282;22.494;2024-03-08T13:12:48;99554.22;;;14.22;37.08
75650;BME280;64245;51.282;22.494;2024-03-08T13:15:14;99557.16;;;12.05;39.70
75650;BME280;64245;51.282;22.494;2024-03-08T13:17:49;99547.63;;;12.11;41.46
75650;BME280;64245;51.282;22.494;2024-03-08T13:20:15;99531.63;;;13.35;39.14
75650;BME280;64245;51.282;22.494;2024-03-08T13:22:45;99536.72;;;13.82;39.06
75650;BME280;64245;51.282;22.494;2024-03-08T13:25:11;99532.84;;;13.85;38.29
75650;BME280;64245;51.282;22.494;2024-03-08T13:27:40;99530.09;;;13.15;37.89
75650;BME280;64245;51.282;22.494;2024-03-08T13:30:11;99537.38;;;13.58;35.90
75650;BME280;64245;51.282;22.494;2024-03-08T13:32:42;99538.09;;;14.46;35.37
75650;BME280;64245;51.282;22.494;2024-03-08T13:35:13;99535.06;;;14.49;35.43
75650;BME280;64245;51.282;22.494;2024-03-08T13:37:42;99532.00;;;15.27;33.65
75650;BME280;64245;51.282;22.494;2024-03-08T13:40:09;99537.22;;;14.79;35.76
75650;BME280;64245;51.282;22.494;2024-03-08T13:42:42;99523.75;;;14.28;36.82
75650;BME280;64245;51.282;22.494;2024-03-08T13:45:09;99522.59;;;13.70;37.35
75650;BME280;64245;51.282;22.494;2024-03-08T13:47:38;99512.22;;;12.14;39.59
75650;BME280;64245;51.282;22.494;2024-03-08T13:50:08;99525.03;;;11.36;40.20
75650;BME280;64245;51.282;22.494;2024-03-08T13:52:38;99515.50;;;11.61;39.72
75650;BME280;64245;51.282;22.494;2024-03-08T13:55:07;99512.91;;;11.89;40.34
75650;BME280;64245;51.282;22.494;2024-03-08T13:57:33;99521.34;;;11.47;42.63
75650;BME280;64245;51.282;22.494;2024-03-08T13:59:59;99498.97;;;11.74;42.30
75650;BME280;64245;51.282;22.494;2024-03-08T14:02:25;99500.00;;;11.63;41.55
75650;BME280;64245;51.282;22.494;2024-03-08T14:04:54;99518.19;;;11.61;41.97
75650;BME280;64245;51.282;22.494;2024-03-08T14:07:20;99501.81;;;10.87;42.78
75650;BME280;64245;51.282;22.494;2024-03-08T14:09:46;99513.50;;;10.38;44.60
75650;BME280;64245;51.282;22.494;2024-03-08T14:12:12;99513.28;;;10.20;45.28
75650;BME280;64245;51.282;22.494;2024-03-08T14:14:41;99508.63;;;9.61;46.87
75650;BME280;64245;51.282;22.494;2024-03-08T14:17:07;99502.06;;;9.75;47.70
75650;BME280;64245;51.282;22.494;2024-03-08T14:19:35;99501.94;;;9.86;48.82
75650;BME280;64245;51.282;22.494;2024-03-08T14:22:01;99493.41;;;10.12;46.60
75650;BME280;64245;51.282;22.494;2024-03-08T14:24:32;99492.28;;;10.83;44.07
75650;BME280;64245;51.282;22.494;2024-03-08T14:27:01;99501.66;;;10.69;44.16
75650;BME280;64245;51.282;22.494;2024-03-08T14:29:29;99494.94;;;10.35;44.75
75650;BME280;64245;51.282;22.494;2024-03-08T14:31:58;99482.06;;;10.38;47.94
75650;BME280;64245;51.282;22.494;2024-03-08T14:34:27;99471.00;;;10.01;46.87
75650;BME280;64245;51.282;22.494;2024-03-08T14:36:55;99481.47;;;10.04;48.88
75650;BME280;64245;51.282;22.494;2024-03-08T14:39:21;99484.50;;;10.80;42.75
75650;BME280;64245;51.282;22.494;2024-03-08T14:41:55;99471.28;;;10.48;42.44
75650;BME280;64245;51.282;22.494;2024-03-08T14:44:21;99471.16;;;11.07;43.71
75650;BME280;64245;51.282;22.494;2024-03-08T14:46:55;99481.53;;;10.83;42.05
75650;BME280;64245;51.282;22.494;2024-03-08T14:49:22;99474.56;;;9.72;45.52
75650;BME280;64245;51.282;22.494;2024-03-08T14:51:48;99472.63;;;9.53;47.31
75650;BME280;64245;51.282;22.494;2024-03-08T14:54:13;99467.59;;;9.59;48.89
75650;BME280;64245;51.282;22.494;2024-03-08T14:56:39;99479.22;;;9.69;48.56
75650;BME280;64245;51.282;22.494;2024-03-08T14:59:08;99465.81;;;9.49;49.47
75650;BME280;64245;51.282;22.494;2024-03-08T15:01:35;99466.75;;;8.44;50.72
75650;BME280;64245;51.282;22.494;2024-03-08T15:04:02;99460.22;;;8.57;52.25
75650;BME280;64245;51.282;22.494;2024-03-08T15:06:35;99441.66;;;8.11;53.55
75650;BME280;64245;51.282;22.494;2024-03-08T15:09:03;99460.94;;;7.94;53.10
75650;BME280;64245;51.282;22.494;2024-03-08T15:11:38;99459.31;;;8.14;54.89
75650;BME280;64245;51.282;22.494;2024-03-08T15:14:05;99459.63;;;7.44;56.40
75650;BME280;64245;51.282;22.494;2024-03-08T15:16:36;99456.81;;;7.45;56.78
75650;BME280;64245;51.282;22.494;2024-03-08T15:19:02;99458.16;;;7.40;57.82
75650;BME280;64245;51.282;22.494;2024-03-08T15:21:31;99449.84;;;7.32;58.91
75650;BME280;64245;51.282;22.494;2024-03-08T15:23:57;99439.19;;;6.97;59.84
75650;BME280;64245;51.282;22.494;2024-03-08T15:26:22;99439.97;;;7.10;61.05
75650;BME280;64245;51.282;22.494;2024-03-08T15:28:48;99449.72;;;7.11;60.78
75650;BME280;64245;51.282;22.494;2024-03-08T15:31:17;99440.44;;;6.92;62.72
75650;BME280;64245;51.282;22.494;2024-03-08T15:33:44;99450.56;;;6.76;63.70
75650;BME280;64245;51.282;22.494;2024-03-08T15:36:14;99451.06;;;6.70;62.08
75650;BME280;64245;51.282;22.494;2024-03-08T15:38:42;99449.16;;;6.48;65.46
75650;BME280;64245;51.282;22.494;2024-03-08T15:41:13;99446.78;;;6.33;64.89
75650;BME280;64245;51.282;22.494;2024-03-08T15:43:39;99451.41;;;6.18;65.04
75650;BME280;64245;51.282;22.494;2024-03-08T15:46:06;99447.97;;;5.79;65.64
75650;BME280;64245;51.282;22.494;2024-03-08T15:48:43;99456.78;;;5.69;67.83
75650;BME280;64245;51.282;22.494;2024-03-08T15:51:09;99454.97;;;5.44;68.82
75650;BME280;64245;51.282;22.494;2024-03-08T15:53:39;99438.88;;;5.33;68.19
75650;BME280;64245;51.282;22.494;2024-03-08T15:56:05;99450.31;;;5.35;69.10
75650;BME280;64245;51.282;22.494;2024-03-08T15:58:40;99454.88;;;5.20;74.51
75650;BME280;64245;51.282;22.494;2024-03-08T16:01:09;99451.47;;;5.05;73.63
75650;BME280;64245;51.282;22.494;2024-03-08T16:03:39;99449.09;;;4.88;76.26
75650;BME280;64245;51.282;22.494;2024-03-08T16:06:27;99455.03;;;4.66;73.18
75650;BME280;64245;51.282;22.494;2024-03-08T16:08:54;99451.59;;;4.51;72.68
75650;BME280;64245;51.282;22.494;2024-03-08T16:11:21;99439.28;;;4.36;73.86
75650;BME280;64245;51.282;22.494;2024-03-08T16:13:48;99450.44;;;4.29;74.25
75650;BME280;64245;51.282;22.494;2024-03-08T16:16:15;99449.59;;;4.01;73.64
75650;BME280;64245;51.282;22.494;2024-03-08T16:18:40;99449.38;;;3.77;73.98
75650;BME280;64245;51.282;22.494;2024-03-08T16:21:06;99450.34;;;3.62;72.78
75650;BME280;64245;51.282;22.494;2024-03-08T16:23:32;99446.53;;;3.52;73.49
75650;BME280;64245;51.282;22.494;2024-03-08T16:25:59;99446.38;;;3.41;73.72
75650;BME280;64245;51.282;22.494;2024-03-08T16:28:24;99451.78;;;3.39;75.81
75650;BME280;64245;51.282;22.494;2024-03-08T16:31:07;99443.97;;;3.36;80.95
75650;BME280;64245;51.282;22.494;2024-03-08T16:33:32;99433.44;;;3.21;81.03
75650;BME280;64245;51.282;22.494;2024-03-08T16:36:18;99443.41;;;3.17;82.50
75650;BME280;64245;51.282;22.494;2024-03-08T16:38:43;99447.19;;;3.13;82.60
75650;BME280;64245;51.282;22.494;2024-03-08T16:41:12;99444.25;;;3.03;82.54
75650;BME280;64245;51.282;22.494;2024-03-08T16:43:38;99438.34;;;2.84;85.56
75650;BME280;64245;51.282;22.494;2024-03-08T16:46:04;99445.66;;;2.81;86.60
75650;BME280;64245;51.282;22.494;2024-03-08T16:48:30;99450.72;;;2.55;87.75
75650;BME280;64245;51.282;22.494;2024-03-08T16:50:59;99448.19;;;2.38;87.80
75650;BME280;64245;51.282;22.494;2024-03-08T16:53:25;99445.56;;;2.22;87.44
75650;BME280;64245;51.282;22.494;2024-03-08T16:55:51;99459.09;;;2.18;87.34
75650;BME280;64245;51.282;22.494;2024-03-08T16:58:19;99457.06;;;2.07;87.70
75650;BME280;64245;51.282;22.494;2024-03-08T17:00:46;99433.44;;;1.87;90.27
75650;BME280;64245;51.282;22.494;2024-03-08T17:03:16;99441.66;;;1.66;87.20
75650;BME280;64245;51.282;22.494;2024-03-08T17:05:42;99458.69;;;1.62;89.70
75650;BME280;64245;51.282;22.494;2024-03-08T17:08:14;99457.44;;;1.54;88.15
75650;BME280;64245;51.282;22.494;2024-03-08T17:10:41;99452.91;;;1.71;88.76
75650;BME280;64245;51.282;22.494;2024-03-08T17:13:10;99455.28;;;1.76;88.00
75650;BME280;64245;51.282;22.494;2024-03-08T17:15:38;99447.13;;;1.79;88.74
75650;BME280;64245;51.282;22.494;2024-03-08T17:18:05;99444.16;;;1.54;94.10
75650;BME280;64245;51.282;22.494;2024-03-08T17:20:37;99443.22;;;1.22;97.52
75650;BME280;64245;51.282;22.494;2024-03-08T17:23:05;99448.34;;;1.09;100.00
75650;BME280;64245;51.282;22.494;2024-03-08T17:25:32;99444.84;;;1.09;98.24
75650;BME280;64245;51.282;22.494;2024-03-08T17:27:58;99427.69;;;0.98;100.00
75650;BME280;64245;51.282;22.494;2024-03-08T17:30:30;99438.28;;;0.98;100.00
75650;BME280;64245;51.282;22.494;2024-03-08T17:33:06;99434.72;;;0.82;100.00
75650;BME280;64245;51.282;22.494;2024-03-08T17:35:38;99442.16;;;0.76;100.00
75650;BME280;64245;51.282;22.494;2024-03-08T17:38:04;99429.53;;;0.63;100.00
75650;BME280;64245;51.282;22.494;2024-03-08T17:40:42;99429.94;;;0.56;100.00
75650;BME280;64245;51.282;22.494;2024-03-08T17:43:09;99431.25;;;0.64;100.00
75650;BME280;64245;51.282;22.494;2024-03-08T17:45:38;99424.88;;;0.51;100.00
75650;BME280;64245;51.282;22.494;2024-03-08T17:48:10;99438.63;;;0.58;100.00
75650;BME280;64245;51.282;22.494;2024-03-08T17:50:41;99438.56;;;0.42;100.00
75650;BME280;64245;51.282;22.494;2024-03-08T17:53:07;99433.75;;;0.33;100.00
75650;BME280;64245;51.282;22.494;2024-03-08T17:55:36;99440.50;;;0.21;100.00
75650;BME280;64245;51.282;22.494;2024-03-08T17:58:03;99435.13;;;0.23;100.00
75650;BME280;64245;51.282;22.494;2024-03-08T18:00:37;99426.88;;;0.12;100.00
75650;BME280;64245;51.282;22.494;2024-03-08T18:03:13;99430.81;;;0.03;100.00
75650;BME280;64245;51.282;22.494;2024-03-08T18:05:47;99425.22;;;0.09;100.00
75650;BME280;64245;51.282;22.494;2024-03-08T18:08:17;99434.72;;;-0.04;100.00
75650;BME280;64245;51.282;22.494;2024-03-08T18:10:44;99428.84;;;-0.11;100.00
75650;BME280;64245;51.282;22.494;2024-03-08T18:13:14;99428.34;;;0.00;100.00
75650;BME280;64245;51.282;22.494;2024-03-08T18:15:43;99426.16;;;-0.28;100.00
75650;BME280;64245;51.282;22.494;2024-03-08T18:18:09;99422.16;;;-0.37;100.00
75650;BME280;64245;51.282;22.494;2024-03-08T18:20:39;99429.34;;;-0.39;100.00
75650;BME280;64245;51.282;22.494;2024-03-08T18:23:26;99428.59;;;-0.23;100.00
75650;BME280;64245;51.282;22.494;2024-03-08T18:25:52;99426.84;;;-0.42;100.00
75650;BME280;64245;51.282;22.494;2024-03-08T18:28:20;99425.13;;;-0.61;100.00
75650;BME280;64245;51.282;22.494;2024-03-08T18:30:47;99421.25;;;-0.73;100.00
75650;BME280;64245;51.282;22.494;2024-03-08T18:33:19;99425.91;;;-0.78;100.00
75650;BME280;64245;51.282;22.494;2024-03-08T18:35:49;99420.38;;;-0.55;100.00
75650;BME280;64245;51.282;22.494;2024-03-08T18:38:21;99414.25;;;-0.55;100.00
75650;BME280;64245;51.282;22.494;2024-03-08T18:40:48;99424.34;;;-0.63;100.00
75650;BME280;64245;51.282;22.494;2024-03-08T18:43:20;99421.13;;;-0.70;100.00
75650;BME280;64245;51.282;22.494;2024-03-08T18:45:55;99424.69;;;-0.71;100.00
75650;BME280;64245;51.282;22.494;2024-03-08T18:48:25;99428.31;;;-0.74;100.00
75650;BME280;64245;51.282;22.494;2024-03-08T18:50:55;99425.91;;;-0.78;100.00
75650;BME280;64245;51.282;22.494;2024-03-08T18:53:23;99420.53;;;-0.77;100.00
75650;BME280;64245;51.282;22.494;2024-03-08T18:55:53;99418.47;;;-0.89;100.00
75650;BME280;64245;51.282;22.494;2024-03-08T18:58:22;99416.88;;;-0.93;100.00
75650;BME280;64245;51.282;22.494;2024-03-08T19:00:49;99416.31;;;-0.99;100.00
